Time,TemperatureF,DewpointF,PressureIn,WindDirection,WindDirectionDegrees,WindSpeedMPH,WindSpeedGustMPH,Humidity,HourlyPrecipIn,Conditions,Clouds,dailyrainin,SoftwareType,DateUTC
2013-05-31 00:21:00,66.0,32.0,-100.00,North,-999,-999.0,-999.0,28,0.00,,,-99.99,,2013-05-31 07:21:00,
2013-05-31 00:32:00,66.0,32.0,-100.00,North,-999,-999.0,-999.0,28,0.00,,,-99.99,,2013-05-31 07:32:00,
2013-05-31 00:42:00,66.0,32.0,-100.00,North,-999,-999.0,-999.0,28,0.00,,,-99.99,,2013-05-31 07:42:00,
2013-05-31 00:52:00,66.0,32.0,-100.00,North,-999,-999.0,-999.0,28,0.00,,,-99.99,,2013-05-31 07:52:00,
2013-05-31 01:00:00,65.0,33.0,-100.00,North,-999,-999.0,-999.0,31,0.00,,,-99.99,,2013-05-31 08:00:00,
2013-05-31 01:22:00,65.0,33.0,-100.00,North,-999,-999.0,-999.0,31,0.00,,,-99.99,,2013-05-31 08:22:00,
2013-05-31 01:32:00,65.0,33.0,-100.00,North,-999,-999.0,-999.0,31,0.00,,,-99.99,,2013-05-31 08:32:00,
2013-05-31 02:21:00,61.0,35.0,-100.00,North,-999,-999.0,-999.0,37,0.00,,,-99.99,,2013-05-31 09:21:00,
2013-05-31 02:32:00,61.0,35.0,-100.00,North,-999,-999.0,-999.0,37,0.00,,,-99.99,,2013-05-31 09:32:00,
2013-05-31 03:00:00,62.0,41.0,-100.00,North,-999,-999.0,-999.0,46,0.00,,,-99.99,,2013-05-31 10:00:00,
2013-05-31 03:23:00,62.0,41.0,-100.00,North,-999,-999.0,-999.0,46,0.00,,,-99.99,,2013-05-31 10:23:00,
2013-05-31 03:33:00,62.0,41.0,-100.00,North,-999,-999.0,-999.0,46,0.00,,,-99.99,,2013-05-31 10:33:00,
2013-05-31 03:42:00,62.0,41.0,-100.00,North,-999,-999.0,-999.0,46,0.00,,,-99.99,,2013-05-31 10:42:00,
2013-05-31 03:52:00,62.0,41.0,-100.00,North,-999,-999.0,-999.0,46,0.00,,,-99.99,,2013-05-31 10:52:00,
2013-05-31 04:22:00,59.0,42.0,-100.00,North,-999,-999.0,-999.0,53,0.00,,,-99.99,,2013-05-31 11:22:00,
2013-05-31 04:32:00,59.0,42.0,-100.00,North,-999,-999.0,-999.0,53,0.00,,,-99.99,,2013-05-31 11:32:00,
2013-05-31 05:22:00,56.0,41.0,-100.00,North,-999,-999.0,-999.0,57,0.00,,,-99.99,,2013-05-31 12:22:00,
2013-05-31 05:32:00,56.0,41.0,-100.00,North,-999,-999.0,-999.0,57,0.00,,,-99.99,,2013-05-31 12:32:00,
2013-05-31 06:00:00,54.0,42.0,-100.00,North,-999,-999.0,-999.0,62,0.00,,,-99.99,,2013-05-31 13:00:00,
2013-05-31 06:21:00,54.0,42.0,-100.00,North,-999,-999.0,-999.0,62,0.00,,,-99.99,,2013-05-31 13:21:00,
2013-05-31 06:32:00,54.0,42.0,-100.00,North,-999,-999.0,-999.0,62,0.00,,,-99.99,,2013-05-31 13:32:00,
2013-05-31 07:00:00,66.0,47.0,-100.00,North,-999,-999.0,-999.0,50,0.00,,,-99.99,,2013-05-31 14:00:00,
2013-05-31 07:22:00,66.0,47.0,-100.00,North,-999,-999.0,-999.0,50,0.00,,,-99.99,,2013-05-31 14:22:00,
2013-05-31 07:32:00,66.0,47.0,-100.00,North,-999,-999.0,-999.0,50,0.00,,,-99.99,,2013-05-31 14:32:00,
2013-05-31 07:42:00,66.0,47.0,-100.00,North,-999,-999.0,-999.0,50,0.00,,,-99.99,,2013-05-31 14:42:00,
2013-05-31 07:52:00,66.0,47.0,-100.00,North,-999,-999.0,-999.0,50,0.00,,,-99.99,,2013-05-31 14:52:00,
2013-05-31 08:00:00,73.0,52.0,-100.00,North,-999,-999.0,-999.0,47,0.00,,,-99.99,,2013-05-31 15:00:00,
2013-05-31 08:21:00,73.0,52.0,-100.00,North,-999,-999.0,-999.0,47,0.00,,,-99.99,,2013-05-31 15:21:00,
2013-05-31 08:33:00,73.0,52.0,-100.00,North,-999,-999.0,-999.0,47,0.00,,,-99.99,,2013-05-31 15:33:00,
2013-05-31 08:43:00,73.0,52.0,-100.00,North,-999,-999.0,-999.0,47,0.00,,,-99.99,,2013-05-31 15:43:00,
2013-05-31 08:53:00,73.0,52.0,-100.00,North,-999,-999.0,-999.0,47,0.00,,,-99.99,,2013-05-31 15:53:00,
2013-05-31 09:00:00,79.0,49.0,-100.00,North,-999,-999.0,-999.0,35,0.00,,,-99.99,,2013-05-31 16:00:00,
2013-05-31 09:22:00,79.0,49.0,-100.00,North,-999,-999.0,-999.0,35,0.00,,,-99.99,,2013-05-31 16:22:00,
2013-05-31 09:33:00,79.0,49.0,-100.00,North,-999,-999.0,-999.0,35,0.00,,,-99.99,,2013-05-31 16:33:00,
2013-05-31 09:42:00,79.0,49.0,-100.00,North,-999,-999.0,-999.0,35,0.00,,,-99.99,,2013-05-31 16:42:00,
2013-05-31 09:52:00,79.0,49.0,-100.00,North,-999,-999.0,-999.0,35,0.00,,,-99.99,,2013-05-31 16:52:00,
2013-05-31 10:00:00,85.0,45.0,-100.00,North,-999,-999.0,-999.0,24,0.00,,,-99.99,,2013-05-31 17:00:00,
2013-05-31 10:22:00,85.0,45.0,-100.00,North,-999,-999.0,-999.0,24,0.00,,,-99.99,,2013-05-31 17:22:00,
2013-05-31 10:32:00,85.0,45.0,-100.00,North,-999,-999.0,-999.0,24,0.00,,,-99.99,,2013-05-31 17:32:00,
2013-05-31 10:42:00,85.0,45.0,-100.00,North,-999,-999.0,-999.0,24,0.00,,,-99.99,,2013-05-31 17:42:00,
2013-05-31 10:52:00,85.0,45.0,-100.00,North,-999,-999.0,-999.0,24,0.00,,,-99.99,,2013-05-31 17:52:00,
2013-05-31 11:00:00,88.0,37.0,-100.00,North,-999,-999.0,-999.0,16,0.00,,,-99.99,,2013-05-31 18:00:00,
2013-05-31 11:22:00,88.0,37.0,-100.00,North,-999,-999.0,-999.0,16,0.00,,,-99.99,,2013-05-31 18:22:00,
2013-05-31 11:32:00,88.0,37.0,-100.00,North,-999,-999.0,-999.0,16,0.00,,,-99.99,,2013-05-31 18:32:00,
2013-05-31 11:42:00,88.0,37.0,-100.00,North,-999,-999.0,-999.0,16,0.00,,,-99.99,,2013-05-31 18:42:00,
2013-05-31 11:52:00,88.0,37.0,-100.00,North,-999,-999.0,-999.0,16,0.00,,,-99.99,,2013-05-31 18:52:00,
2013-05-31 12:00:00,90.0,34.0,-100.00,North,-999,-999.0,-999.0,13,0.00,,,-99.99,,2013-05-31 19:00:00,
2013-05-31 12:22:00,90.0,34.0,-100.00,North,-999,-999.0,-999.0,13,0.00,,,-99.99,,2013-05-31 19:22:00,
2013-05-31 12:32:00,90.0,34.0,-100.00,North,-999,-999.0,-999.0,13,0.00,,,-99.99,,2013-05-31 19:32:00,
2013-05-31 12:42:00,90.0,34.0,-100.00,North,-999,-999.0,-999.0,13,0.00,,,-99.99,,2013-05-31 19:42:00,
2013-05-31 12:52:00,90.0,34.0,-100.00,North,-999,-999.0,-999.0,13,0.00,,,-99.99,,2013-05-31 19:52:00,
2013-05-31 13:00:00,91.0,32.0,-100.00,North,-999,-999.0,-999.0,12,0.00,,,-99.99,,2013-05-31 20:00:00,
2013-05-31 13:32:00,91.0,32.0,-100.00,North,-999,-999.0,-999.0,12,0.00,,,-99.99,,2013-05-31 20:32:00,
2013-05-31 13:42:00,91.0,32.0,-100.00,North,-999,-999.0,-999.0,12,0.00,,,-99.99,,2013-05-31 20:42:00,
2013-05-31 13:52:00,91.0,32.0,-100.00,North,-999,-999.0,-999.0,12,0.00,,,-99.99,,2013-05-31 20:52:00,
2013-05-31 14:00:00,95.0,36.0,-100.00,North,-999,-999.0,-999.0,12,0.00,,,-99.99,,2013-05-31 21:00:00,
2013-05-31 14:22:00,95.0,36.0,-100.00,North,-999,-999.0,-999.0,12,0.00,,,-99.99,,2013-05-31 21:22:00,
2013-05-31 14:33:00,95.0,36.0,-100.00,North,-999,-999.0,-999.0,12,0.00,,,-99.99,,2013-05-31 21:33:00,
2013-05-31 14:43:00,95.0,36.0,-100.00,North,-999,-999.0,-999.0,12,0.00,,,-99.99,,2013-05-31 21:43:00,
2013-05-31 14:54:00,95.0,36.0,-100.00,North,-999,-999.0,-999.0,12,0.00,,,-99.99,,2013-05-31 21:54:00,
2013-05-31 15:00:00,94.0,31.0,-100.00,North,-999,-999.0,-999.0,11,0.00,,,-99.99,,2013-05-31 22:00:00,
2013-05-31 15:22:00,94.0,31.0,-100.00,North,-999,-999.0,-999.0,11,0.00,,,-99.99,,2013-05-31 22:22:00,
2013-05-31 15:33:00,94.0,31.0,-100.00,North,-999,-999.0,-999.0,11,0.00,,,-99.99,,2013-05-31 22:33:00,
2013-05-31 15:42:00,94.0,31.0,-100.00,North,-999,-999.0,-999.0,11,0.00,,,-99.99,,2013-05-31 22:42:00,
2013-05-31 15:53:00,94.0,31.0,-100.00,North,-999,-999.0,-999.0,11,0.00,,,-99.99,,2013-05-31 22:53:00,
2013-05-31 16:00:00,96.0,33.0,-100.00,North,-999,-999.0,-999.0,10,0.00,,,-99.99,,2013-05-31 23:00:00,
2013-05-31 16:22:00,96.0,33.0,-100.00,North,-999,-999.0,-999.0,10,0.00,,,-99.99,,2013-05-31 23:22:00,
2013-05-31 16:32:00,96.0,33.0,-100.00,North,-999,-999.0,-999.0,10,0.00,,,-99.99,,2013-05-31 23:32:00,
2013-05-31 16:42:00,96.0,33.0,-100.00,North,-999,-999.0,-999.0,10,0.00,,,-99.99,,2013-05-31 23:42:00,
2013-05-31 16:52:00,96.0,33.0,-100.00,North,-999,-999.0,-999.0,10,0.00,,,-99.99,,2013-05-31 23:52:00,
2013-05-31 17:00:00,93.0,31.0,-100.00,North,-999,-999.0,-999.0,11,0.00,,,-99.99,,2013-06-01 00:00:00,
2013-05-31 17:22:00,93.0,31.0,-100.00,North,-999,-999.0,-999.0,11,0.00,,,-99.99,,2013-06-01 00:22:00,
2013-05-31 17:32:00,93.0,31.0,-100.00,North,-999,-999.0,-999.0,11,0.00,,,-99.99,,2013-06-01 00:32:00,
2013-05-31 17:42:00,93.0,31.0,-100.00,North,-999,-999.0,-999.0,11,0.00,,,-99.99,,2013-06-01 00:42:00,
2013-05-31 17:52:00,93.0,31.0,-100.00,North,-999,-999.0,-999.0,11,0.00,,,-99.99,,2013-06-01 00:52:00,
2013-05-31 18:00:00,89.0,31.0,-100.00,North,-999,-999.0,-999.0,12,0.00,,,-99.99,,2013-06-01 01:00:00,
2013-05-31 18:22:00,89.0,31.0,-100.00,North,-999,-999.0,-999.0,12,0.00,,,-99.99,,2013-06-01 01:22:00,
2013-05-31 18:32:00,89.0,31.0,-100.00,North,-999,-999.0,-999.0,12,0.00,,,-99.99,,2013-06-01 01:32:00,
2013-05-31 18:42:00,89.0,31.0,-100.00,North,-999,-999.0,-999.0,12,0.00,,,-99.99,,2013-06-01 01:42:00,
2013-05-31 18:52:00,89.0,31.0,-100.00,North,-999,-999.0,-999.0,12,0.00,,,-99.99,,2013-06-01 01:52:00,
2013-05-31 19:00:00,86.0,33.0,-100.00,North,-999,-999.0,-999.0,14,0.00,,,-99.99,,2013-06-01 02:00:00,
2013-05-31 19:22:00,86.0,33.0,-100.00,North,-999,-999.0,-999.0,14,0.00,,,-99.99,,2013-06-01 02:22:00,
2013-05-31 19:32:00,86.0,33.0,-100.00,North,-999,-999.0,-999.0,14,0.00,,,-99.99,,2013-06-01 02:32:00,
2013-05-31 19:42:00,86.0,33.0,-100.00,North,-999,-999.0,-999.0,14,0.00,,,-99.99,,2013-06-01 02:42:00,
2013-05-31 19:52:00,86.0,33.0,-100.00,North,-999,-999.0,-999.0,14,0.00,,,-99.99,,2013-06-01 02:52:00,
2013-05-31 20:00:00,80.0,36.0,-100.00,North,-999,-999.0,-999.0,20,0.00,,,-99.99,,2013-06-01 03:00:00,
2013-05-31 20:22:00,80.0,36.0,-100.00,North,-999,-999.0,-999.0,20,0.00,,,-99.99,,2013-06-01 03:22:00,
2013-05-31 20:33:00,80.0,36.0,-100.00,North,-999,-999.0,-999.0,20,0.00,,,-99.99,,2013-06-01 03:33:00,
2013-05-31 20:43:00,80.0,36.0,-100.00,North,-999,-999.0,-999.0,20,0.00,,,-99.99,,2013-06-01 03:43:00,
2013-05-31 20:53:00,80.0,36.0,-100.00,North,-999,-999.0,-999.0,20,0.00,,,-99.99,,2013-06-01 03:53:00,
2013-05-31 21:00:00,76.0,36.0,-100.00,North,-999,-999.0,-999.0,24,0.00,,,-99.99,,2013-06-01 04:00:00,
2013-05-31 21:23:00,76.0,36.0,-100.00,North,-999,-999.0,-999.0,24,0.00,,,-99.99,,2013-06-01 04:23:00,
2013-05-31 21:33:00,76.0,36.0,-100.00,North,-999,-999.0,-999.0,24,0.00,,,-99.99,,2013-06-01 04:33:00,
2013-05-31 21:53:00,76.0,36.0,-100.00,North,-999,-999.0,-999.0,24,0.00,,,-99.99,,2013-06-01 04:53:00,
2013-05-31 22:22:00,66.0,36.0,-100.00,North,-999,-999.0,-999.0,32,0.00,,,-99.99,,2013-06-01 05:22:00,
2013-05-31 22:32:00,66.0,36.0,-100.00,North,-999,-999.0,-999.0,32,0.00,,,-99.99,,2013-06-01 05:32:00,
2013-05-31 23:22:00,63.0,34.0,-100.00,North,-999,-999.0,-999.0,34,0.00,,,-99.99,,2013-06-01 06:22:00,
2013-05-31 23:32:00,63.0,34.0,-100.00,North,-999,-999.0,-999.0,34,0.00,,,-99.99,,2013-06-01 06:32:00,